Time;durP1;ratioP1;P1;durP2;ratioP2;P2;SDS_P1;SDS_P2;PMS_P1;PMS_P2;Temp;Humidity;BMP_temperature;BMP_pressure;BME280_temperature;BME280_humidity;BME280_pressure;Samples;Min_cycle;Max_cycle;Signal;HPM_P1;HPM_P2
2022/01/31 00:00:40;;;;;;;19.35;6.60;;;;;;;2.66;75.17;101490.75;10496746;28;20028;-77
2022/01/31 00:05:41;;;;;;;22.52;7.22;;;;;;;2.86;74.64;101502.88;10496094;28;20055;-76
2022/01/31 00:10:42;;;;;;;26.05;7.38;;;;;;;3.03;74.06;101492.34;10511412;28;20532;-77
2022/01/31 00:15:46;;;;;;;14.85;7.25;;;;;;;3.06;74.34;101469.34;10462177;28;20036;-76
2022/01/31 00:20:47;;;;;;;21.95;7.50;;;;;;;3.13;74.44;101444.91;10477637;28;20036;-77
2022/01/31 00:25:47;;;;;;;19.52;9.57;;;;;;;3.11;74.47;101406.78;10496341;28;20036;-77
2022/01/31 00:30:48;;;;;;;17.33;6.28;;;;;;;3.15;74.71;101394.22;10494700;28;20062;-77
2022/01/31 00:35:48;;;;;;;19.52;7.28;;;;;;;3.25;73.80;101371.72;10460839;28;20171;-77
2022/01/31 00:40:49;;;;;;;10.30;5.13;;;;;;;3.26;74.03;101347.66;10477496;28;20056;-77
2022/01/31 00:46:01;;;;;;;20.45;8.07;;;;;;;3.27;73.92;101316.75;10495105;28;20044;-77
2022/01/31 00:51:01;;;;;;;20.52;8.20;;;;;;;3.34;73.67;101294.88;10495749;28;20380;-77
2022/01/31 00:56:02;;;;;;;15.45;7.63;;;;;;;3.32;73.90;101261.13;10494133;28;20048;-77
2022/01/31 01:01:02;;;;;;;18.75;5.50;;;;;;;3.34;74.12;101245.72;10477634;28;20037;-77
2022/01/31 01:06:03;;;;;;;19.27;5.72;;;;;;;3.37;74.40;101227.84;10495229;28;20060;-77
2022/01/31 01:11:04;;;;;;;14.35;5.20;;;;;;;3.42;74.11;101205.84;10477885;28;20387;-77
2022/01/31 01:16:05;;;;;;;20.08;7.80;;;;;;;3.47;74.28;101178.66;10494893;28;20468;-76
2022/01/31 01:21:05;;;;;;;14.48;6.70;;;;;;;3.56;74.51;101146.53;10494371;28;20028;-77
2022/01/31 01:26:06;;;;;;;22.98;6.10;;;;;;;3.29;77.38;101121.16;10493281;28;20066;-77
2022/01/31 01:31:06;;;;;;;13.68;6.63;;;;;;;3.10;79.44;101108.41;10476867;28;20035;-77
2022/01/31 01:36:07;;;;;;;54.70;11.30;;;;;;;3.03;80.12;101099.25;10499018;28;20079;-77
2022/01/31 01:41:08;;;;;;;22.20;7.07;;;;;;;3.12;79.45;101082.69;10502597;28;20041;-77
2022/01/31 01:46:08;;;;;;;16.08;6.40;;;;;;;3.19;79.56;101080.69;10484021;28;20087;-77
2022/01/31 01:51:09;;;;;;;16.02;6.30;;;;;;;3.15;80.20;101045.03;10500335;28;20060;-77
2022/01/31 01:56:09;;;;;;;29.42;8.48;;;;;;;2.94;82.29;101029.59;10484258;28;20036;-78
2022/01/31 02:01:11;;;;;;;25.60;7.93;;;;;;;2.81;83.81;101015.56;10483240;28;20029;-77
2022/01/31 02:06:12;;;;;;;29.85;8.50;;;;;;;2.70;84.76;101013.00;10484233;28;20464;-78
2022/01/31 02:11:13;;;;;;;14.15;7.13;;;;;;;2.63;85.88;100995.19;10461731;28;20048;-78
2022/01/31 02:16:14;;;;;;;14.68;6.20;;;;;;;2.54;87.11;100977.22;10500409;28;20032;-78
2022/01/31 02:21:14;;;;;;;19.15;7.13;;;;;;;2.45;87.65;100964.47;10500717;28;20396;-79
2022/01/31 02:26:15;;;;;;;14.80;7.57;;;;;;;2.38;89.16;100940.59;10498858;28;20107;-79
2022/01/31 02:31:15;;;;;;;27.15;8.88;;;;;;;2.34;88.80;100930.00;10482959;28;20541;-79
2022/01/31 02:36:16;;;;;;;12.23;6.30;;;;;;;2.27;89.65;100906.16;10499766;28;20072;-80
2022/01/31 02:41:16;;;;;;;19.73;6.80;;;;;;;2.30;90.17;100890.91;10460585;28;20053;-79
2022/01/31 02:46:17;;;;;;;17.27;6.00;;;;;;;2.26;90.38;100879.41;10456921;28;20149;-80
2022/01/31 02:51:21;;;;;;;17.30;7.68;;;;;;;2.24;90.17;100860.31;10495021;28;20391;-79
2022/01/31 02:56:22;;;;;;;20.13;10.43;;;;;;;2.27;90.99;100857.09;10498620;28;20035;-80
2022/01/31 03:01:22;;;;;;;15.52;8.32;;;;;;;2.40;91.57;100851.19;10498895;28;20063;-79
2022/01/31 03:06:23;;;;;;;20.08;8.38;;;;;;;2.40;91.65;100834.03;10482036;28;20442;-80
2022/01/31 03:11:23;;;;;;;13.85;7.47;;;;;;;2.45;91.67;100836.97;10480638;28;20439;-79
2022/01/31 03:16:24;;;;;;;18.52;6.97;;;;;;;2.51;92.05;100818.50;10480563;28;20029;-79
2022/01/31 03:21:24;;;;;;;18.52;8.73;;;;;;;2.55;92.28;100810.19;10497598;28;20484;-79
2022/01/31 03:26:25;;;;;;;20.90;6.88;;;;;;;2.64;92.30;100801.47;10497547;28;20105;-80
2022/01/31 03:31:25;;;;;;;13.63;7.28;;;;;;;2.73;92.35;100797.81;10497751;28;20036;-80
2022/01/31 03:36:26;;;;;;;19.35;8.40;;;;;;;2.78;92.64;100791.31;10479944;28;20614;-81
2022/01/31 03:41:26;;;;;;;16.23;6.18;;;;;;;2.89;92.76;100785.28;10496258;28;20039;-83
2022/01/31 03:46:27;;;;;;;15.57;6.50;;;;;;;2.99;92.74;100791.16;10495418;28;20140;-81
2022/01/31 03:51:28;;;;;;;11.80;7.55;;;;;;;3.04;92.68;100777.81;10496139;28;20067;-82
2022/01/31 03:56:28;;;;;;;18.88;7.15;;;;;;;3.04;92.83;100777.81;10479175;28;20060;-82
2022/01/31 04:01:28;;;;;;;12.25;7.32;;;;;;;3.17;93.03;100771.88;10454034;28;20129;-82
2022/01/31 04:06:29;;;;;;;18.55;9.18;;;;;;;3.25;93.18;100771.56;10455366;28;20056;-82
2022/01/31 04:11:29;;;;;;;17.02;9.40;;;;;;;3.30;92.96;100768.56;10494841;28;20047;-83
2022/01/31 04:16:30;;;;;;;24.33;11.07;;;;;;;3.37;93.07;100777.66;10495571;28;20040;-82
2022/01/31 04:21:30;;;;;;;16.98;9.93;;;;;;;3.46;92.67;100767.13;10436691;28;20128;-83
2022/01/31 04:26:33;;;;;;;20.88;9.27;;;;;;;3.56;92.67;100764.44;10453421;28;20074;-81
2022/01/31 04:31:39;;;;;;;18.90;8.48;;;;;;;3.62;92.11;100775.22;10527975;28;20058;-82
2022/01/31 04:36:39;;;;;;;22.63;11.32;;;;;;;3.70;92.73;100767.13;10494650;28;20036;-81
2022/01/31 04:41:40;;;;;;;11.95;6.40;;;;;;;3.76;91.69;100752.03;10494381;28;20533;-81
2022/01/31 04:46:41;;;;;;;12.35;5.75;;;;;;;3.78;90.80;100750.47;10477586;28;20048;-83
2022/01/31 04:51:41;;;;;;;23.95;6.45;;;;;;;3.84;89.03;100750.91;10495079;28;20036;-82
2022/01/31 04:56:42;;;;;;;11.55;5.90;;;;;;;3.87;89.07;100734.69;10493528;28;20040;-82
2022/01/31 05:01:43;;;;;;;14.73;5.00;;;;;;;3.98;88.03;100723.41;10495110;28;20050;-79
2022/01/31 05:06:46;;;;;;;11.27;5.00;;;;;;;4.02;86.82;100745.28;10477545;28;20103;-82
2022/01/31 05:11:47;;;;;;;10.70;3.33;;;;;;;4.14;85.05;100735.78;10509846;28;20025;-79
2022/01/31 05:16:48;;;;;;;21.48;6.07;;;;;;;4.27;83.89;100732.38;10531693;28;20407;-79
2022/01/31 05:21:48;;;;;;;10.73;5.38;;;;;;;4.23;83.84;100725.16;10526841;28;20058;-79
2022/01/31 05:26:51;;;;;;;12.00;3.40;;;;;;;4.22;82.94;100713.00;10528014;28;20024;-79
2022/01/31 05:31:53;;;;;;;15.30;4.78;;;;;;;4.13;83.44;100712.34;10523018;28;20115;-79
2022/01/31 05:36:55;;;;;;;23.50;6.90;;;;;;;4.15;83.52;100719.47;10503699;28;20044;-79
2022/01/31 05:41:56;;;;;;;13.48;4.82;;;;;;;4.15;82.53;100705.59;10494715;28;20594;-79
2022/01/31 05:46:57;;;;;;;10.82;4.28;;;;;;;4.17;81.98;100698.81;10500284;28;20102;-79
2022/01/31 05:52:04;;;;;;;13.95;4.63;;;;;;;4.15;80.64;100695.22;10497399;28;20393;-80
2022/01/31 05:57:05;;;;;;;10.98;4.88;;;;;;;4.09;81.72;100695.72;10491931;28;20123;-78
2022/01/31 06:02:07;;;;;;;13.70;4.82;;;;;;;4.01;81.93;100676.13;10483297;28;20500;-81
2022/01/31 06:07:08;;;;;;;30.67;4.30;;;;;;;3.87;83.16;100668.28;10499301;28;20112;-81
2022/01/31 06:12:11;;;;;;;16.25;3.80;;;;;;;3.84;83.25;100654.22;10466039;28;20460;-77
2022/01/31 06:17:11;;;;;;;19.55;4.65;;;;;;;3.74;84.08;100663.91;10483179;28;20017;-81
2022/01/31 06:22:12;;;;;;;15.77;5.85;;;;;;;3.63;85.09;100657.06;10482014;28;20056;-82
2022/01/31 06:27:12;;;;;;;11.30;4.55;;;;;;;3.53;85.05;100658.09;10497976;28;20044;-79
2022/01/31 06:32:13;;;;;;;16.27;5.95;;;;;;;3.45;85.85;100662.69;10499155;28;20359;-79
2022/01/31 06:37:13;;;;;;;24.02;5.25;;;;;;;3.37;86.72;100667.31;10482208;28;20079;-83
2022/01/31 06:42:15;;;;;;;13.85;4.07;;;;;;;3.28;87.53;100709.72;10498921;28;20067;-87
2022/01/31 06:47:15;;;;;;;17.53;4.47;;;;;;;3.19;87.88;100723.75;10481383;28;20047;-85
2022/01/31 06:52:16;;;;;;;11.35;5.07;;;;;;;2.97;88.22;100722.91;10499643;28;20045;-81
2022/01/31 06:57:22;;;;;;;17.73;6.35;;;;;;;2.91;89.47;100716.50;10493098;28;20062;-79
2022/01/31 07:02:23;;;;;;;12.68;3.83;;;;;;;2.85;90.13;100705.69;10444326;28;20120;-78
2022/01/31 07:07:23;;;;;;;23.40;8.02;;;;;;;2.87;89.44;100695.50;10480689;28;20104;-79
2022/01/31 07:12:31;;;;;;;19.33;6.97;;;;;;;2.81;89.55;100679.50;10495399;28;20116;-79
2022/01/31 07:17:31;;;;;;;14.63;5.97;;;;;;;2.87;89.54;100703.25;10468298;28;20032;-82
2022/01/31 07:22:36;;;;;;;15.23;5.07;;;;;;;3.01;88.41;100696.50;10510928;28;20055;-82
2022/01/31 07:27:37;;;;;;;18.92;3.88;;;;;;;3.02;87.78;100694.06;10540826;28;20028;-85
2022/01/31 07:32:41;;;;;;;22.83;6.38;;;;;;;3.02;87.69;100707.00;10510905;28;20070;-84
2022/01/31 07:37:48;;;;;;;16.10;4.35;;;;;;;2.99;88.02;100714.50;10506670;28;20035;-82
2022/01/31 07:42:48;;;;;;;12.68;4.90;;;;;;;3.00;87.50;100702.47;10514275;28;20099;-83
2022/01/31 07:47:49;;;;;;;9.52;5.05;;;;;;;2.92;87.69;100702.78;10519353;28;20088;-82
2022/01/31 07:52:49;;;;;;;19.35;5.35;;;;;;;2.87;88.39;100680.88;10496546;28;20034;-83
2022/01/31 07:57:50;;;;;;;12.00;4.22;;;;;;;2.92;87.95;100682.09;10500619;28;20086;-86
2022/01/31 08:02:52;;;;;;;12.43;4.10;;;;;;;2.97;88.28;100684.13;10494754;28;20367;-86
2022/01/31 08:07:52;;;;;;;17.88;3.75;;;;;;;2.94;87.65;100702.91;10488394;28;20480;-86
2022/01/31 08:12:55;;;;;;;12.07;4.03;;;;;;;2.90;88.50;100708.66;10511669;28;20063;-85
2022/01/31 08:17:55;;;;;;;17.75;4.03;;;;;;;2.85;88.20;100722.91;10506472;28;20062;-86
2022/01/31 08:22:56;;;;;;;16.85;5.18;;;;;;;2.83;88.78;100735.69;10501854;28;20089;-91
2022/01/31 08:28:01;;;;;;;13.95;5.82;;;;;;;2.75;89.42;100729.03;10515334;28;20105;-86
2022/01/31 08:33:12;;;;;;;22.10;7.22;;;;;;;2.76;89.41;100723.09;10485206;28;20035;-87
2022/01/31 08:38:12;;;;;;;12.77;5.70;;;;;;;2.75;89.24;100714.44;10477092;28;20036;-86
2022/01/31 08:43:17;;;;;;;16.55;5.45;;;;;;;2.74;89.46;100696.22;10512285;28;20032;-81
2022/01/31 08:48:17;;;;;;;20.73;6.35;;;;;;;2.77;89.53;100704.22;10472705;28;20446;-84
2022/01/31 08:53:18;;;;;;;18.83;5.22;;;;;;;2.75;89.64;100726.44;10500390;28;20024;-83
2022/01/31 08:58:19;;;;;;;26.52;6.28;;;;;;;2.75;89.67;100711.88;10484711;28;20062;-85
2022/01/31 09:03:34;;;;;;;19.52;5.40;;;;;;;2.72;90.00;100724.56;10480613;28;20477;-82
2022/01/31 09:08:35;;;;;;;29.45;7.28;;;;;;;2.75;90.30;100706.69;10502529;28;20036;-83
2022/01/31 09:13:36;;;;;;;33.67;8.52;;;;;;;2.77;89.88;100714.56;10495495;28;20032;-83
2022/01/31 09:18:36;;;;;;;20.17;6.47;;;;;;;2.80;89.83;100696.69;10501226;28;20064;-82
2022/01/31 09:23:37;;;;;;;23.98;8.82;;;;;;;2.81;89.72;100716.59;10502267;28;20056;-83
2022/01/31 09:28:41;;;;;;;34.53;10.20;;;;;;;2.88;89.75;100728.31;10474698;28;20476;-85
2022/01/31 09:33:42;;;;;;;24.40;7.82;;;;;;;2.96;89.54;100709.13;10493198;28;20029;-85
2022/01/31 09:38:42;;;;;;;20.45;8.30;;;;;;;2.92;89.19;100728.66;10489772;28;20058;-85
2022/01/31 09:48:49;;;;;;;26.48;11.27;;;;;;;2.89;89.55;100735.28;10486012;28;20520;-84
2022/01/31 09:53:53;;;;;;;25.55;8.80;;;;;;;2.94;89.56;100727.06;10520359;28;20035;-84
2022/01/31 09:58:54;;;;;;;21.80;5.18;;;;;;;3.01;89.32;100722.38;10542144;28;20636;-86
2022/01/31 10:04:00;;;;;;;28.20;12.00;;;;;;;3.09;89.35;100739.38;10511883;28;20438;-87
2022/01/31 10:09:07;;;;;;;23.95;6.25;;;;;;;3.22;88.46;100752.44;10492881;28;20083;-88
2022/01/31 10:19:29;;;;;;;16.35;5.53;;;;;;;3.31;88.40;100741.91;10508555;28;20402;-81
2022/01/31 10:24:31;;;;;;;20.65;6.68;;;;;;;3.25;87.61;100800.00;10517155;28;20024;-85
2022/01/31 10:29:32;;;;;;;;;;;;;;;3.17;88.55;100805.50;10506375;28;20496;-85
2022/01/31 10:34:45;;;;;;;15.80;5.78;;;;;;;3.08;88.66;100830.66;10517917;28;19991;-83
2022/01/31 10:50:55;;;;;;;24.23;9.50;;;;;;;3.22;88.38;100808.47;10520252;28;20028;-83
2022/01/31 10:55:56;;;;;;;28.15;8.32;;;;;;;3.25;87.76;100815.53;10538426;28;20044;-83
2022/01/31 11:01:12;;;;;;;40.47;10.25;;;;;;;3.17;88.08;100814.97;10539712;28;20056;-84
2022/01/31 11:06:13;;;;;;;46.75;11.27;;;;;;;3.27;88.55;100807.13;10491669;28;20497;-78
2022/01/31 11:11:14;;;;;;;29.60;9.50;;;;;;;3.24;88.04;100827.59;10491362;28;20396;-81
2022/01/31 11:16:14;;;;;;;29.17;10.77;;;;;;;3.28;87.62;100846.81;10493249;28;20040;-83
2022/01/31 11:21:15;;;;;;;41.30;12.18;;;;;;;3.31;86.74;100854.81;10450586;28;20021;-82
2022/01/31 11:26:16;;;;;;;40.13;12.38;;;;;;;3.33;87.38;100861.00;10436703;28;20548;-82
2022/01/31 11:31:17;;;;;;;30.63;10.27;;;;;;;3.35;87.01;100878.47;10472445;28;20029;-81
2022/01/31 11:36:17;;;;;;;27.25;10.63;;;;;;;3.25;86.34;100878.53;10473771;28;20040;-83
2022/01/31 11:41:18;;;;;;;41.10;8.00;;;;;;;3.18;86.43;100884.91;10452830;28;20388;-83
2022/01/31 11:46:22;;;;;;;29.08;9.13;;;;;;;3.18;87.21;100904.72;10454837;28;20049;-84
2022/01/31 11:51:23;;;;;;;24.63;8.80;;;;;;;3.22;87.94;100901.56;10498252;28;20029;-82
2022/01/31 11:56:24;;;;;;;28.30;8.60;;;;;;;3.26;88.00;100898.44;10520317;28;20024;-80
2022/01/31 12:01:24;;;;;;;31.52;9.10;;;;;;;3.24;88.39;100905.19;10498371;28;20048;-81
2022/01/31 12:06:27;;;;;;;35.47;10.40;;;;;;;3.24;88.31;100905.19;10474318;28;20496;-81
2022/01/31 12:11:29;;;;;;;23.50;8.80;;;;;;;3.30;87.89;100903.06;10482874;28;20352;-82
2022/01/31 12:17:08;;;;;;;18.75;7.40;;;;;;;3.34;88.53;100920.63;10499801;28;20029;-82
2022/01/31 12:22:00;;;;;;;29.25;9.00;;;;;;;3.41;88.45;100924.59;10512965;28;20058;-82
2022/01/31 12:27:11;;;;;;;29.70;11.80;;;;;;;3.41;87.58;100934.94;10508614;28;20089;-82
2022/01/31 12:32:23;;;;;;;32.50;7.60;;;;;;;3.38;87.27;100924.34;10506096;28;20028;-84
2022/01/31 12:37:35;;;;;;;26.52;8.23;;;;;;;3.43;87.53;100929.91;10478760;28;20119;-82
2022/01/31 12:48:31;;;;;;;37.90;12.48;;;;;;;3.38;87.67;100939.88;10452941;28;20040;-81
2022/01/31 12:58:36;;;;;;;28.73;10.50;;;;;;;3.28;87.98;100964.13;10467551;28;20111;-81
2022/01/31 13:03:37;;;;;;;;;;;;;;;3.24;88.41;100969.84;10474583;28;20036;-83
2022/01/31 13:08:39;;;;;;;22.45;7.85;;;;;;;3.26;88.17;100968.28;10456937;28;19920;-81
2022/01/31 13:13:40;;;;;;;21.63;9.45;;;;;;;3.18;88.37;100961.63;10453890;28;20435;-80
2022/01/31 13:18:43;;;;;;;25.30;10.75;;;;;;;3.22;88.86;100968.84;10450847;28;20029;-81
2022/01/31 13:23:44;;;;;;;41.35;12.15;;;;;;;3.24;88.77;100956.91;10453381;28;20036;-81
2022/01/31 13:28:49;;;;;;;32.83;8.23;;;;;;;3.24;88.58;100995.72;10471107;28;20059;-79
2022/01/31 13:33:52;;;;;;;30.40;10.50;;;;;;;3.22;88.25;100995.59;10463671;28;20154;-78
2022/01/31 13:38:53;;;;;;;22.48;9.02;;;;;;;3.24;89.09;100998.31;10500093;28;20476;-79
2022/01/31 13:43:53;;;;;;;25.13;8.48;;;;;;;3.20;89.15;101002.31;10496471;28;20076;-81
2022/01/31 13:54:08;;;;;;;29.00;9.32;;;;;;;3.23;88.99;101015.50;10506380;28;20047;-79
2022/01/31 13:59:09;;;;;;;49.60;15.48;;;;;;;3.19;89.44;101013.44;10540386;28;20107;-82
2022/01/31 14:04:10;;;;;;;34.92;11.95;;;;;;;3.15;89.94;101024.34;10483137;28;20475;-82
2022/01/31 14:09:11;;;;;;;47.77;12.53;;;;;;;3.06;90.14;101036.53;10484556;28;20387;-80
2022/01/31 14:14:12;;;;;;;41.75;15.23;;;;;;;3.08;90.03;101035.88;10521430;28;20332;-81
2022/01/31 14:19:14;;;;;;;47.03;13.95;;;;;;;3.12;89.64;101047.38;10517952;28;20020;-81
2022/01/31 14:24:16;;;;;;;40.63;14.52;;;;;;;3.16;90.07;101058.88;10521882;28;20063;-82
2022/01/31 14:29:17;;;;;;;66.80;16.60;;;;;;;3.10;90.13;101067.03;10486425;28;20028;-83
2022/01/31 14:34:19;;;;;;;32.17;13.05;;;;;;;3.08;90.22;101069.50;10497515;28;20079;-81
2022/01/31 14:49:41;;;;;;;36.20;13.93;;;;;;;3.09;90.48;101091.09;10501581;28;20039;-80
2022/01/31 14:54:42;;;;;;;39.38;13.10;;;;;;;3.13;90.73;101087.97;10477073;28;20047;-81
2022/01/31 14:59:43;;;;;;;38.20;11.97;;;;;;;3.14;90.18;101115.63;10476630;28;20020;-81
2022/01/31 15:04:43;;;;;;;56.60;16.58;;;;;;;3.12;90.72;101124.94;10481806;28;20048;-80
2022/01/31 15:09:44;;;;;;;35.72;14.25;;;;;;;3.16;89.53;101129.59;10464548;28;20023;-80
2022/01/31 15:14:47;;;;;;;35.28;12.65;;;;;;;3.15;89.32;101145.91;10495074;28;20102;-79
2022/01/31 15:19:47;;;;;;;39.10;13.40;;;;;;;3.12;90.54;101160.28;10491705;28;20043;-79
2022/01/31 15:24:48;;;;;;;30.98;11.65;;;;;;;3.10;90.27;101156.66;10510431;28;20036;-78
2022/01/31 15:29:48;;;;;;;53.53;14.02;;;;;;;3.10;90.20;101157.56;10511012;28;20054;-77
2022/01/31 15:34:49;;;;;;;39.60;9.93;;;;;;;3.11;89.77;101166.22;10494980;28;20078;-76
2022/01/31 15:39:49;;;;;;;43.15;15.88;;;;;;;3.13;89.49;101175.91;10495200;28;20020;-77
2022/01/31 15:44:57;;;;;;;42.28;13.98;;;;;;;3.18;89.67;101181.47;10474317;28;20419;-78
2022/01/31 15:49:58;;;;;;;40.92;15.05;;;;;;;3.21;89.56;101198.13;10466284;28;20362;-85
2022/01/31 15:54:58;;;;;;;46.33;13.15;;;;;;;3.21;89.32;101203.31;10518219;28;20032;-78
2022/01/31 16:00:00;;;;;;;38.85;13.27;;;;;;;3.14;89.86;101237.19;10501457;28;20123;-78
2022/01/31 16:05:00;;;;;;;48.85;12.10;;;;;;;3.08;90.27;101240.19;10511352;28;20028;-78
2022/01/31 16:10:01;;;;;;;42.47;13.63;;;;;;;3.07;90.24;101240.97;10482696;28;20039;-77
2022/01/31 16:15:01;;;;;;;39.20;12.43;;;;;;;3.01;90.42;101250.81;10458772;28;20079;-78
2022/01/31 16:20:03;;;;;;;56.20;15.60;;;;;;;2.99;90.88;101243.69;10471294;28;20060;-76
2022/01/31 16:25:06;;;;;;;40.88;12.35;;;;;;;2.94;91.39;101274.34;10458458;28;20435;-78
2022/01/31 16:30:07;;;;;;;46.72;10.32;;;;;;;2.91;91.09;101285.31;10469375;28;20024;-78
2022/01/31 16:35:08;;;;;;;36.55;10.63;;;;;;;2.87;90.93;101298.75;10452705;28;20039;-77
2022/01/31 16:40:09;;;;;;;22.83;6.40;;;;;;;2.84;91.18;101326.94;10450543;28;20390;-76
2022/01/31 16:45:10;;;;;;;32.85;12.38;;;;;;;2.83;91.45;101324.22;10482429;28;20045;-76
2022/01/31 16:50:21;;;;;;;32.38;12.18;;;;;;;2.87;91.80;101332.34;10453755;28;20484;-75
2022/01/31 16:55:25;;;;;;;38.90;11.82;;;;;;;2.88;91.80;101349.69;10474042;28;20040;-76
2022/01/31 17:00:29;;;;;;;41.10;16.08;;;;;;;2.87;91.86;101363.38;10506589;28;20024;-75
2022/01/31 17:05:33;;;;;;;52.97;14.50;;;;;;;2.96;91.87;101372.72;10494481;28;20397;-80
2022/01/31 17:10:50;;;;;;;41.60;13.68;;;;;;;2.93;91.81;101376.84;10497271;28;20028;-79
2022/01/31 17:15:52;;;;;;;38.00;14.07;;;;;;;2.91;91.75;101393.03;10489075;28;20033;-79
2022/01/31 17:20:52;;;;;;;46.72;13.38;;;;;;;2.88;91.92;101385.88;10463308;28;20104;-80
2022/01/31 17:25:53;;;;;;;43.15;14.52;;;;;;;2.94;91.95;101401.94;10486851;28;20029;-79
2022/01/31 17:30:53;;;;;;;42.17;13.27;;;;;;;2.96;91.48;101429.59;10529841;28;20059;-79
2022/01/31 17:35:55;;;;;;;47.38;13.98;;;;;;;3.00;90.88;101460.13;10520463;28;20597;-79
2022/01/31 17:40:58;;;;;;;40.17;10.95;;;;;;;3.00;91.45;101458.47;10515189;28;20484;-78
2022/01/31 17:45:58;;;;;;;44.07;13.83;;;;;;;3.03;91.14;101476.84;10475685;28;20044;-77
2022/01/31 17:50:59;;;;;;;41.42;14.95;;;;;;;3.05;90.63;101474.38;10471425;28;20033;-79
2022/01/31 17:56:00;;;;;;;37.85;13.85;;;;;;;3.11;90.18;101492.13;10515364;28;20032;-79
2022/01/31 18:01:04;;;;;;;50.28;16.17;;;;;;;3.13;89.48;101496.66;10486729;28;20412;-79
2022/01/31 18:06:04;;;;;;;36.00;10.48;;;;;;;3.15;89.16;101509.72;10498771;28;20036;-79
2022/01/31 18:11:07;;;;;;;57.33;12.88;;;;;;;3.12;89.31;101527.56;10498241;28;20024;-79
2022/01/31 18:16:11;;;;;;;40.00;12.48;;;;;;;3.30;87.35;101551.53;10493909;28;20586;-80
2022/01/31 18:21:11;;;;;;;27.30;8.57;;;;;;;3.31;87.01;101569.81;10491993;28;20142;-85
2022/01/31 18:26:12;;;;;;;38.55;9.52;;;;;;;3.38;87.39;101573.81;10487109;28;20091;-79
2022/01/31 18:31:14;;;;;;;24.42;7.25;;;;;;;3.34;87.18;101603.72;10484886;28;20036;-82
2022/01/31 18:36:15;;;;;;;32.00;10.88;;;;;;;3.20;86.96;101607.66;10507717;28;20380;-80
2022/01/31 18:41:17;;;;;;;36.97;10.37;;;;;;;3.10;87.67;101624.81;10494869;28;20033;-79
2022/01/31 18:46:17;;;;;;;28.88;9.02;;;;;;;3.00;88.48;101624.00;10473025;28;20149;-78
2022/01/31 18:51:20;;;;;;;35.45;12.70;;;;;;;2.98;88.27;101622.00;10474290;28;20078;-80
2022/01/31 18:56:21;;;;;;;38.15;10.52;;;;;;;3.06;88.07;101650.41;10471846;28;20064;-79
2022/01/31 19:01:22;;;;;;;27.23;10.23;;;;;;;3.14;87.67;101655.38;10473768;28;20051;-78
2022/01/31 19:06:25;;;;;;;39.38;14.60;;;;;;;3.03;87.84;101675.06;10496773;28;20039;-81
2022/01/31 19:11:28;;;;;;;34.42;9.25;;;;;;;3.00;88.16;101673.13;10493959;28;20025;-78
2022/01/31 19:16:30;;;;;;;37.10;10.48;;;;;;;2.85;88.23;101687.25;10458019;28;20036;-78
2022/01/31 19:21:31;;;;;;;;;;;;;;;2.72;89.09;101698.09;10449326;28;20029;-78
2022/01/31 19:26:32;;;;;;;45.13;13.18;;;;;;;2.67;89.52;101700.28;10474488;28;19920;-79
2022/01/31 19:31:36;;;;;;;33.70;10.95;;;;;;;2.64;89.33;101723.25;10478047;28;20471;-79
2022/01/31 19:36:37;;;;;;;28.52;9.85;;;;;;;2.75;89.00;101755.28;10474943;28;20036;-79
2022/01/31 19:46:58;;;;;;;42.92;13.63;;;;;;;2.76;88.77;101752.84;10457034;28;20068;-78
2022/01/31 19:51:59;;;;;;;39.15;14.35;;;;;;;2.79;88.41;101775.47;10473529;28;20119;-78
2022/01/31 19:57:00;;;;;;;31.73;11.60;;;;;;;2.86;87.07;101757.19;10459839;28;20464;-80
2022/01/31 20:02:01;;;;;;;31.60;11.00;;;;;;;2.79;87.00;101771.22;10473301;28;20031;-79
2022/01/31 20:07:01;;;;;;;39.20;10.75;;;;;;;2.83;86.09;101789.63;10484020;28;20432;-79
2022/01/31 20:12:02;;;;;;;29.92;7.90;;;;;;;2.79;86.28;101798.75;10472389;28;20555;-79
2022/01/31 20:17:03;;;;;;;42.67;12.93;;;;;;;2.81;86.08;101817.00;10475584;28;20365;-82
2022/01/31 20:22:05;;;;;;;26.38;9.60;;;;;;;2.78;86.11;101820.19;10472756;28;20044;-80
2022/01/31 20:27:06;;;;;;;26.77;9.50;;;;;;;2.76;86.07;101840.75;10483633;28;20086;-79
2022/01/31 20:32:07;;;;;;;24.30;8.43;;;;;;;2.76;85.96;101827.81;10479283;28;20033;-80
2022/01/31 20:37:21;;;;;;;30.60;10.75;;;;;;;2.69;86.13;101838.34;10465607;28;20508;-79
2022/01/31 20:42:25;;;;;;;28.80;9.55;;;;;;;2.72;85.02;101830.88;10476192;28;20033;-80
2022/01/31 20:47:26;;;;;;;36.65;7.93;;;;;;;2.75;84.30;101843.16;10476649;28;20071;-78
2022/01/31 20:52:28;;;;;;;25.15;8.32;;;;;;;2.78;83.09;101867.66;10475262;28;20124;-78
2022/01/31 20:57:30;;;;;;;30.17;11.00;;;;;;;2.89;81.69;101871.25;10480463;28;20032;-78
2022/01/31 21:02:37;;;;;;;38.38;7.88;;;;;;;2.97;80.47;101891.75;10478206;28;20408;-78
2022/01/31 21:07:43;;;;;;;39.70;10.75;;;;;;;2.91;79.59;101879.16;10503324;28;20040;-79
2022/01/31 21:12:45;;;;;;;21.30;7.10;;;;;;;3.03;78.09;101882.91;10486387;28;20032;-80
2022/01/31 21:17:45;;;;;;;18.33;6.25;;;;;;;2.78;78.25;101880.59;10521667;28;20496;-81
2022/01/31 21:22:46;;;;;;;33.97;8.38;;;;;;;2.37;78.77;101874.94;10499605;28;20060;-78
2022/01/31 21:27:49;;;;;;;20.48;5.68;;;;;;;2.17;78.49;101898.81;10500130;28;20036;-79
2022/01/31 21:32:50;;;;;;;18.23;5.20;;;;;;;1.80;80.28;101897.75;10477912;28;20039;-79
2022/01/31 21:37:51;;;;;;;30.53;9.47;;;;;;;1.54;81.38;101903.81;10517814;28;20048;-78
2022/01/31 21:42:53;;;;;;;21.40;6.75;;;;;;;1.33;82.06;101916.34;10473003;28;20040;-78
2022/01/31 21:47:55;;;;;;;24.70;7.05;;;;;;;1.15;82.83;101915.41;10504959;28;20042;-78
2022/01/31 21:52:56;;;;;;;18.15;6.85;;;;;;;1.08;82.36;101923.28;10511155;28;20373;-80
2022/01/31 21:57:56;;;;;;;34.10;6.05;;;;;;;1.08;83.36;101921.59;10511154;28;20040;-79
2022/01/31 22:02:57;;;;;;;37.55;7.28;;;;;;;1.01;83.11;101922.63;10488828;28;20043;-80
2022/01/31 22:07:59;;;;;;;16.77;5.55;;;;;;;0.98;84.08;101945.53;10499246;28;20049;-79
2022/01/31 22:13:00;;;;;;;18.60;6.63;;;;;;;1.00;84.86;101961.13;10489221;28;20016;-78
2022/01/31 22:18:00;;;;;;;13.93;5.13;;;;;;;1.00;84.84;101982.69;10499707;28;20064;-78
2022/01/31 22:23:01;;;;;;;24.70;7.57;;;;;;;0.95;85.94;101981.31;10498946;28;20439;-78
2022/01/31 22:28:01;;;;;;;20.08;6.50;;;;;;;0.91;86.30;101978.22;10499707;28;20087;-78
2022/01/31 22:33:04;;;;;;;15.27;5.13;;;;;;;0.73;86.67;101978.13;10500034;28;20130;-78
2022/01/31 22:38:05;;;;;;;19.60;6.00;;;;;;;0.63;88.32;101954.72;10482192;28;20496;-78
2022/01/31 22:43:05;;;;;;;22.75;6.65;;;;;;;0.47;88.75;101944.47;10495598;28;20032;-78
2022/01/31 22:48:06;;;;;;;23.17;5.78;;;;;;;0.43;89.30;101943.22;10499562;28;20056;-78
2022/01/31 22:53:06;;;;;;;12.15;5.35;;;;;;;0.40;89.39;101948.97;10498806;28;20105;-78
2022/01/31 22:58:07;;;;;;;14.30;6.78;;;;;;;0.25;90.05;101939.63;10481384;28;20472;-78
2022/01/31 23:03:07;;;;;;;23.35;6.32;;;;;;;0.17;89.60;101931.06;10482337;28;20037;-78
2022/01/31 23:08:08;;;;;;;14.68;5.15;;;;;;;0.05;89.83;101924.63;10498028;28;20067;-77
2022/01/31 23:13:10;;;;;;;20.92;5.15;;;;;;;-0.16;89.70;101961.09;10494420;28;20025;-78
2022/01/31 23:44:58;;;;;;;22.88;5.03;;;;;;;-0.45;90.59;101960.47;10469657;28;20075;-79
